Time;durP1;ratioP1;P1;durP2;ratioP2;P2;SDS_P1;SDS_P2;PMS_P1;PMS_P2;Temp;Humidity;BMP_temperature;BMP_pressure;BME280_temperature;BME280_humidity;BME280_pressure;Samples;Min_cycle;Max_cycle;Signal;HPM_P1;HPM_P2
2022/11/27 00:00:24;;;;;;;33.45;10.80;;;;;;;;;;5051834;28;20051;-66
2022/11/27 00:02:50;;;;;;;30.27;11.00;;;;;;;;;;5049815;28;20055;-67
2022/11/27 00:05:16;;;;;;;34.42;10.23;;;;;;;;;;5051274;28;20175;-66
2022/11/27 00:07:42;;;;;;;31.67;10.63;;;;;;;;;;5051929;28;20056;-66
2022/11/27 00:10:09;;;;;;;31.55;10.93;;;;;;;;;;5042936;28;20040;-66
2022/11/27 00:12:35;;;;;;;36.50;10.55;;;;;;;;;;5053716;28;20484;-66
2022/11/27 00:15:02;;;;;;;31.35;9.35;;;;;;;;;;5053338;28;20041;-67
2022/11/27 00:17:28;;;;;;;39.17;9.88;;;;;;;;;;5051756;28;20056;-66
2022/11/27 00:19:54;;;;;;;29.65;8.90;;;;;;;;;;5052761;28;20105;-66
2022/11/27 00:22:21;;;;;;;32.63;9.82;;;;;;;;;;5050647;28;20036;-66
2022/11/27 00:24:47;;;;;;;31.60;9.10;;;;;;;;;;5055586;28;20392;-67
2022/11/27 00:27:13;;;;;;;31.77;10.52;;;;;;;;;;5050980;28;20891;-66
2022/11/27 00:29:39;;;;;;;30.30;9.80;;;;;;;;;;5050036;28;21863;-66
2022/11/27 00:32:07;;;;;;;33.53;9.88;;;;;;;;;;5049427;28;20075;-66
2022/11/27 00:34:33;;;;;;;32.85;9.02;;;;;;;;;;5050633;28;20056;-66
2022/11/27 00:36:59;;;;;;;31.35;9.70;;;;;;;;;;5049406;28;20052;-66
2022/11/27 00:39:26;;;;;;;31.13;8.65;;;;;;;;;;5051069;28;20110;-66
2022/11/27 00:41:53;;;;;;;35.67;10.10;;;;;;;;;;5052608;28;20051;-66
2022/11/27 00:44:19;;;;;;;25.83;7.50;;;;;;;;;;5049941;28;20535;-66
2022/11/27 00:46:45;;;;;;;35.22;9.02;;;;;;;;;;5051490;28;20100;-66
2022/11/27 00:49:12;;;;;;;28.55;7.68;;;;;;;;;;5048966;28;20151;-66
2022/11/27 00:51:39;;;;;;;28.45;8.52;;;;;;;;;;5055460;28;20041;-66
2022/11/27 00:54:05;;;;;;;27.30;8.73;;;;;;;;;;5050340;28;20084;-66
2022/11/27 00:56:33;;;;;;;25.75;8.85;;;;;;;;;;5052356;28;20060;-66
2022/11/27 00:59:00;;;;;;;30.17;8.75;;;;;;;;;;5054252;28;20428;-66
2022/11/27 01:01:27;;;;;;;29.42;9.15;;;;;;;;;;5056924;28;20159;-66
2022/11/27 01:03:54;;;;;;;33.08;8.77;;;;;;;;;;5056694;28;20156;-67
2022/11/27 01:06:21;;;;;;;28.17;7.88;;;;;;;;;;5054512;28;20481;-66
2022/11/27 01:08:47;;;;;;;31.00;8.73;;;;;;;;;;5056217;28;20103;-67
2022/11/27 01:11:15;;;;;;;34.17;10.07;;;;;;;;;;5052999;28;20037;-66
2022/11/27 01:13:41;;;;;;;35.38;8.55;;;;;;;;;;5053899;28;20449;-66
2022/11/27 01:16:09;;;;;;;34.42;9.38;;;;;;;;;;5054197;28;20080;-66
2022/11/27 01:18:36;;;;;;;27.38;8.38;;;;;;;;;;5052188;28;20127;-66
2022/11/27 01:21:03;;;;;;;25.25;9.05;;;;;;;;;;5052780;28;20127;-67
2022/11/27 01:23:30;;;;;;;28.67;8.35;;;;;;;;;;5055730;28;20032;-66
2022/11/27 01:25:56;;;;;;;26.80;7.50;;;;;;;;;;5055268;28;20090;-66
2022/11/27 01:28:23;;;;;;;31.25;9.15;;;;;;;;;;5052578;28;20531;-66
2022/11/27 01:30:50;;;;;;;34.33;8.73;;;;;;;;;;5054808;28;20045;-67
2022/11/27 01:33:16;;;;;;;29.75;8.60;;;;;;;;;;5051239;28;20136;-67
2022/11/27 01:35:43;;;;;;;26.58;8.23;;;;;;;;;;5053163;28;20838;-66
2022/11/27 01:38:09;;;;;;;21.70;8.00;;;;;;;;;;5053616;28;20432;-66
2022/11/27 01:40:35;;;;;;;27.55;7.93;;;;;;;;;;5053476;28;20645;-66
2022/11/27 01:43:01;;;;;;;25.27;9.00;;;;;;;;;;5053691;28;20055;-66
2022/11/27 01:45:27;;;;;;;36.25;8.95;;;;;;;;;;5049364;28;20083;-66
2022/11/27 01:47:56;;;;;;;23.80;8.38;;;;;;;;;;5050839;28;20495;-67
2022/11/27 01:50:24;;;;;;;25.35;8.40;;;;;;;;;;5050758;28;20407;-66
2022/11/27 01:52:52;;;;;;;25.95;8.23;;;;;;;;;;5052921;28;20547;-67
2022/11/27 01:55:22;;;;;;;32.70;8.68;;;;;;;;;;5052123;28;20454;-66
2022/11/27 01:57:51;;;;;;;20.63;7.28;;;;;;;;;;5048154;28;20053;-66
2022/11/27 02:00:18;;;;;;;25.50;7.57;;;;;;;;;;5053142;28;20439;-66
2022/11/27 02:02:44;;;;;;;23.90;7.57;;;;;;;;;;5048014;28;20102;-66
2022/11/27 02:05:11;;;;;;;24.77;7.53;;;;;;;;;;5051555;28;20090;-66
2022/11/27 02:07:37;;;;;;;22.08;7.45;;;;;;;;;;5053379;28;20375;-67
2022/11/27 02:10:04;;;;;;;21.13;7.03;;;;;;;;;;5052554;28;20260;-67
2022/11/27 02:12:35;;;;;;;23.25;7.32;;;;;;;;;;5052000;28;20052;-67
2022/11/27 02:15:03;;;;;;;19.15;7.07;;;;;;;;;;5051725;28;20151;-66
2022/11/27 02:17:35;;;;;;;23.42;6.75;;;;;;;;;;5049355;28;21466;-67
2022/11/27 02:20:14;;;;;;;25.95;7.07;;;;;;;;;;5051015;28;20056;-67
2022/11/27 02:22:44;;;;;;;18.45;6.28;;;;;;;;;;5049121;28;20180;-67
2022/11/27 02:25:15;;;;;;;24.00;7.25;;;;;;;;;;5051745;28;20404;-66
2022/11/27 02:27:44;;;;;;;20.65;6.03;;;;;;;;;;5045663;28;20055;-66
2022/11/27 02:30:10;;;;;;;25.70;7.57;;;;;;;;;;5049391;28;20450;-66
2022/11/27 02:32:39;;;;;;;25.73;7.70;;;;;;;;;;5052753;28;20144;-66
2022/11/27 02:35:17;;;;;;;19.20;6.40;;;;;;;;;;5048983;28;20044;-66
2022/11/27 02:37:51;;;;;;;19.90;8.23;;;;;;;;;;5048252;28;20075;-66
2022/11/27 02:40:23;;;;;;;21.27;7.30;;;;;;;;;;5051012;28;20048;-66
2022/11/27 02:42:53;;;;;;;18.73;6.90;;;;;;;;;;5049228;28;20052;-66
2022/11/27 02:45:23;;;;;;;19.38;6.57;;;;;;;;;;5048643;28;20488;-66
2022/11/27 02:47:50;;;;;;;23.05;6.85;;;;;;;;;;5050545;28;21651;-66
2022/11/27 02:50:19;;;;;;;18.67;6.43;;;;;;;;;;5046513;28;20542;-67
2022/11/27 02:52:47;;;;;;;21.27;7.28;;;;;;;;;;5047165;28;20346;-67
2022/11/27 02:55:15;;;;;;;24.70;7.80;;;;;;;;;;5049930;28;20071;-66
2022/11/27 02:57:42;;;;;;;18.52;6.40;;;;;;;;;;5052166;28;20495;-66
2022/11/27 03:00:09;;;;;;;21.48;6.85;;;;;;;;;;5049208;28;20055;-66
2022/11/27 03:02:38;;;;;;;22.23;7.10;;;;;;;;;;5050095;28;20068;-66
2022/11/27 03:05:05;;;;;;;16.83;7.15;;;;;;;;;;5050803;28;20091;-66
2022/11/27 03:07:36;;;;;;;19.73;6.18;;;;;;;;;;5049507;28;20044;-67
2022/11/27 03:10:06;;;;;;;17.73;6.22;;;;;;;;;;5049427;28;20060;-66
2022/11/27 03:12:32;;;;;;;22.15;7.35;;;;;;;;;;5051760;28;20055;-66
2022/11/27 03:14:58;;;;;;;17.80;6.22;;;;;;;;;;5046766;28;20131;-66
2022/11/27 03:17:35;;;;;;;18.67;6.10;;;;;;;;;;5050257;28;20083;-66
2022/11/27 03:20:08;;;;;;;17.02;6.22;;;;;;;;;;5049035;28;20045;-67
2022/11/27 03:22:34;;;;;;;21.92;6.03;;;;;;;;;;5052550;28;20423;-66
2022/11/27 03:25:00;;;;;;;14.75;6.22;;;;;;;;;;5054909;28;20468;-66
2022/11/27 03:27:30;;;;;;;20.42;7.05;;;;;;;;;;5048673;28;20491;-66
2022/11/27 03:29:57;;;;;;;20.45;6.90;;;;;;;;;;5052562;28;20060;-66
2022/11/27 03:32:23;;;;;;;22.95;6.03;;;;;;;;;;5050303;28;20559;-66
2022/11/27 03:34:50;;;;;;;20.92;6.93;;;;;;;;;;5052853;28;20402;-66
2022/11/27 03:37:16;;;;;;;16.00;6.78;;;;;;;;;;5048291;28;20032;-66
2022/11/27 03:39:42;;;;;;;16.67;6.43;;;;;;;;;;5049367;28;20043;-67
2022/11/27 03:42:27;;;;;;;18.10;6.30;;;;;;;;;;5052000;28;20037;-66
2022/11/27 03:45:00;;;;;;;16.42;6.32;;;;;;;;;;5050892;28;20045;-66
2022/11/27 03:47:30;;;;;;;18.23;7.05;;;;;;;;;;5048256;28;20048;-66
2022/11/27 03:50:12;;;;;;;23.52;6.35;;;;;;;;;;5051209;28;20084;-66
2022/11/27 03:52:57;;;;;;;23.05;6.50;;;;;;;;;;5050598;28;20119;-66
2022/11/27 03:55:33;;;;;;;20.10;6.60;;;;;;;;;;5047837;28;20075;-66
2022/11/27 03:58:01;;;;;;;19.30;7.28;;;;;;;;;;5050267;28;20048;-66
2022/11/27 04:00:30;;;;;;;18.98;7.47;;;;;;;;;;5049237;28;20337;-67
2022/11/27 04:02:56;;;;;;;17.13;6.72;;;;;;;;;;5051349;28;20045;-66
2022/11/27 04:05:22;;;;;;;23.23;7.07;;;;;;;;;;5053034;28;20051;-66
2022/11/27 04:07:49;;;;;;;18.60;8.15;;;;;;;;;;5054489;28;20051;-66
2022/11/27 04:10:15;;;;;;;17.20;7.43;;;;;;;;;;5051835;28;20140;-66
2022/11/27 04:12:41;;;;;;;17.52;7.30;;;;;;;;;;5049040;28;20568;-66
2022/11/27 04:15:08;;;;;;;19.92;7.45;;;;;;;;;;5049462;28;20056;-66
2022/11/27 04:17:34;;;;;;;22.30;7.25;;;;;;;;;;5050517;28;20204;-66
2022/11/27 04:20:00;;;;;;;19.02;7.53;;;;;;;;;;5048188;28;20150;-66
2022/11/27 04:22:26;;;;;;;22.58;7.47;;;;;;;;;;5045652;28;20041;-66
2022/11/27 04:24:52;;;;;;;21.23;7.90;;;;;;;;;;5049209;28;20157;-66
2022/11/27 04:27:18;;;;;;;18.65;7.40;;;;;;;;;;5046320;28;20513;-66
2022/11/27 04:29:44;;;;;;;24.48;8.15;;;;;;;;;;5048932;28;20135;-66
2022/11/27 04:32:10;;;;;;;18.08;8.13;;;;;;;;;;5050193;28;20073;-66
2022/11/27 04:34:37;;;;;;;22.20;8.32;;;;;;;;;;5053627;28;20085;-66
2022/11/27 04:37:03;;;;;;;19.80;7.20;;;;;;;;;;5049731;28;20052;-66
2022/11/27 04:39:29;;;;;;;18.75;7.57;;;;;;;;;;5050881;28;20049;-66
2022/11/27 04:41:55;;;;;;;28.10;10.15;;;;;;;;;;5050860;28;20053;-66
2022/11/27 04:44:22;;;;;;;29.27;8.45;;;;;;;;;;5050733;28;20315;-66
2022/11/27 04:46:49;;;;;;;16.92;7.47;;;;;;;;;;5049706;28;20028;-66
2022/11/27 04:49:15;;;;;;;16.45;7.72;;;;;;;;;;5052401;28;20071;-66
2022/11/27 04:51:41;;;;;;;18.38;7.70;;;;;;;;;;5049801;28;20428;-66
2022/11/27 04:54:07;;;;;;;21.60;7.30;;;;;;;;;;5052189;28;20095;-66
2022/11/27 04:56:33;;;;;;;19.95;8.35;;;;;;;;;;5070995;28;20040;-65
2022/11/27 04:59:00;;;;;;;23.20;7.43;;;;;;;;;;5034052;28;20128;-65
2022/11/27 05:01:26;;;;;;;17.65;7.80;;;;;;;;;;5055574;28;20040;-66
2022/11/27 05:03:52;;;;;;;20.20;7.03;;;;;;;;;;5070192;28;20417;-65
2022/11/27 05:06:21;;;;;;;16.98;7.07;;;;;;;;;;5067415;28;20063;-66
2022/11/27 05:08:47;;;;;;;18.35;7.65;;;;;;;;;;5064034;28;20403;-66
2022/11/27 05:11:14;;;;;;;19.05;7.90;;;;;;;;;;5069984;28;20144;-66
2022/11/27 05:13:41;;;;;;;21.08;8.77;;;;;;;;;;5070455;28;20146;-66
2022/11/27 05:16:07;;;;;;;22.27;7.80;;;;;;;;;;5073627;28;20042;-65
2022/11/27 05:18:34;;;;;;;19.73;7.35;;;;;;;;;;5069878;28;20496;-66
2022/11/27 05:21:01;;;;;;;18.83;6.95;;;;;;;;;;5072746;28;20098;-65
2022/11/27 05:23:28;;;;;;;19.70;7.03;;;;;;;;;;5070836;28;20990;-66
2022/11/27 05:25:54;;;;;;;19.55;7.20;;;;;;;;;;5049665;28;20396;-66
2022/11/27 05:28:21;;;;;;;15.82;6.30;;;;;;;;;;5069529;28;20376;-65
2022/11/27 05:30:47;;;;;;;19.00;7.13;;;;;;;;;;5053634;28;20060;-65
2022/11/27 05:33:14;;;;;;;20.45;8.32;;;;;;;;;;5073682;28;20174;-66
2022/11/27 05:35:41;;;;;;;19.33;7.55;;;;;;;;;;5070032;28;20066;-66
2022/11/27 05:38:07;;;;;;;17.65;6.63;;;;;;;;;;5052482;28;20063;-65
2022/11/27 05:40:34;;;;;;;17.85;6.20;;;;;;;;;;5071681;28;20047;-66
2022/11/27 05:43:00;;;;;;;16.48;7.05;;;;;;;;;;5053426;28;20079;-65
2022/11/27 05:45:26;;;;;;;14.02;5.85;;;;;;;;;;5072214;28;20040;-66
2022/11/27 05:47:52;;;;;;;14.80;6.22;;;;;;;;;;5074315;28;20045;-66
2022/11/27 05:50:18;;;;;;;23.10;6.88;;;;;;;;;;5074802;28;20033;-66
2022/11/27 05:52:44;;;;;;;17.80;6.22;;;;;;;;;;5073176;28;20106;-68
2022/11/27 05:55:11;;;;;;;18.20;6.28;;;;;;;;;;5072396;28;20048;-66
2022/11/27 05:57:37;;;;;;;15.82;5.75;;;;;;;;;;5070544;28;20040;-66
2022/11/27 06:00:04;;;;;;;14.98;6.57;;;;;;;;;;5074100;28;20066;-66
2022/11/27 06:02:30;;;;;;;17.52;6.38;;;;;;;;;;5073533;28;20064;-66
2022/11/27 06:04:56;;;;;;;17.23;5.50;;;;;;;;;;5054086;28;20045;-66
2022/11/27 06:07:22;;;;;;;17.98;6.57;;;;;;;;;;5057608;28;20610;-66
2022/11/27 06:09:48;;;;;;;12.93;5.60;;;;;;;;;;5077276;28;20138;-66
2022/11/27 06:12:14;;;;;;;18.65;6.05;;;;;;;;;;5075336;28;20128;-66
2022/11/27 06:14:40;;;;;;;17.08;5.35;;;;;;;;;;5072211;28;20088;-66
2022/11/27 06:17:07;;;;;;;15.77;5.78;;;;;;;;;;5076566;28;20479;-66
2022/11/27 06:19:33;;;;;;;14.05;5.93;;;;;;;;;;5071241;28;20411;-66
2022/11/27 06:21:59;;;;;;;13.38;4.80;;;;;;;;;;5051381;28;20416;-66
2022/11/27 06:24:25;;;;;;;18.08;6.13;;;;;;;;;;5074673;28;20047;-66
2022/11/27 06:26:51;;;;;;;14.55;5.47;;;;;;;;;;5056732;28;20048;-66
2022/11/27 06:29:17;;;;;;;16.40;6.05;;;;;;;;;;5063979;28;20079;-66
2022/11/27 06:31:44;;;;;;;16.73;5.38;;;;;;;;;;5043408;28;20036;-66
2022/11/27 06:34:11;;;;;;;19.50;6.57;;;;;;;;;;5072243;28;20054;-66
2022/11/27 06:36:39;;;;;;;17.88;5.45;;;;;;;;;;5071645;28;20450;-65
2022/11/27 06:39:06;;;;;;;17.13;4.72;;;;;;;;;;5071957;28;20490;-65
2022/11/27 06:41:32;;;;;;;13.18;5.13;;;;;;;;;;5055015;28;20065;-65
2022/11/27 06:43:59;;;;;;;17.13;5.80;;;;;;;;;;5051435;28;20041;-65
2022/11/27 06:46:26;;;;;;;12.85;4.85;;;;;;;;;;5066974;28;20137;-65
2022/11/27 06:48:53;;;;;;;18.40;5.47;;;;;;;;;;5070112;28;20055;-65
2022/11/27 06:51:20;;;;;;;13.07;4.65;;;;;;;;;;5053246;28;20040;-65
2022/11/27 06:53:46;;;;;;;13.32;4.53;;;;;;;;;;5054146;28;20056;-65
2022/11/27 06:56:14;;;;;;;12.30;4.28;;;;;;;;;;5051626;28;20488;-65
2022/11/27 06:58:40;;;;;;;19.17;6.07;;;;;;;;;;5051890;28;20629;-69
2022/11/27 07:01:08;;;;;;;16.98;5.32;;;;;;;;;;5052835;28;20400;-69
2022/11/27 07:03:36;;;;;;;14.32;4.88;;;;;;;;;;5056085;28;20102;-65
2022/11/27 07:06:03;;;;;;;15.15;4.53;;;;;;;;;;5077916;28;20055;-65
2022/11/27 07:08:29;;;;;;;19.65;4.93;;;;;;;;;;5076220;28;20044;-66
2022/11/27 07:11:02;;;;;;;12.57;4.03;;;;;;;;;;5077014;28;20122;-66
2022/11/27 07:13:29;;;;;;;9.77;5.05;;;;;;;;;;5056888;28;20079;-66
2022/11/27 07:15:55;;;;;;;17.02;5.18;;;;;;;;;;5058828;28;20044;-65
2022/11/27 07:18:21;;;;;;;13.60;4.50;;;;;;;;;;5053408;28;20123;-65
2022/11/27 07:20:51;;;;;;;9.48;4.43;;;;;;;;;;5062298;28;20094;-65
2022/11/27 07:23:17;;;;;;;16.35;5.00;;;;;;;;;;5055216;28;20102;-65
2022/11/27 07:25:43;;;;;;;13.35;3.85;;;;;;;;;;5059287;28;20051;-65
2022/11/27 07:28:09;;;;;;;10.98;4.82;;;;;;;;;;5073086;28;20116;-65
2022/11/27 07:30:35;;;;;;;13.27;4.30;;;;;;;;;;5074498;28;20040;-65
2022/11/27 07:33:01;;;;;;;9.63;3.78;;;;;;;;;;5052199;28;20110;-65
2022/11/27 07:35:27;;;;;;;9.05;3.58;;;;;;;;;;5058611;28;20045;-65
2022/11/27 07:37:53;;;;;;;14.13;4.20;;;;;;;;;;5075734;28;20048;-65
2022/11/27 07:40:20;;;;;;;13.90;3.85;;;;;;;;;;5053666;28;20052;-66
2022/11/27 07:42:46;;;;;;;15.57;5.55;;;;;;;;;;5073676;28;20116;-66
2022/11/27 07:45:12;;;;;;;13.63;4.63;;;;;;;;;;5072827;28;20112;-65
2022/11/27 07:47:38;;;;;;;17.70;4.05;;;;;;;;;;5072614;28;20048;-66
2022/11/27 07:50:07;;;;;;;9.40;4.53;;;;;;;;;;5076626;28;20036;-65
2022/11/27 07:52:39;;;;;;;13.23;4.22;;;;;;;;;;5072697;28;20044;-65
2022/11/27 07:55:05;;;;;;;11.68;4.78;;;;;;;;;;5073135;28;20044;-65
2022/11/27 07:57:31;;;;;;;16.67;4.35;;;;;;;;;;5038136;28;20041;-65
2022/11/27 07:59:57;;;;;;;12.32;4.05;;;;;;;;;;5079540;28;20044;-65
2022/11/27 08:02:23;;;;;;;12.75;4.47;;;;;;;;;;5074974;28;20175;-66
2022/11/27 08:04:49;;;;;;;12.13;3.88;;;;;;;;;;5075333;28;20047;-65
2022/11/27 08:07:16;;;;;;;12.05;3.33;;;;;;;;;;5074627;28;20094;-65
2022/11/27 08:09:42;;;;;;;16.30;4.93;;;;;;;;;;5073952;28;20076;-65
2022/11/27 08:12:08;;;;;;;16.70;4.53;;;;;;;;;;5073122;28;20055;-65
2022/11/27 08:14:34;;;;;;;13.63;5.30;;;;;;;;;;5075107;28;20052;-65
2022/11/27 08:17:00;;;;;;;15.88;5.00;;;;;;;;;;5054231;28;20048;-65
2022/11/27 08:19:27;;;;;;;15.02;4.65;;;;;;;;;;5075409;28;20369;-65
2022/11/27 08:21:55;;;;;;;16.67;5.28;;;;;;;;;;5072327;28;20555;-66
2022/11/27 08:24:21;;;;;;;13.52;4.45;;;;;;;;;;5070422;28;20064;-65
2022/11/27 08:26:47;;;;;;;13.98;4.90;;;;;;;;;;5057408;28;20173;-66
2022/11/27 08:29:13;;;;;;;13.55;4.85;;;;;;;;;;5073857;28;20063;-66
2022/11/27 08:31:39;;;;;;;14.43;4.65;;;;;;;;;;5071928;28;20120;-66
2022/11/27 08:34:05;;;;;;;12.05;4.93;;;;;;;;;;5079220;28;20051;-66
2022/11/27 08:36:32;;;;;;;14.85;4.65;;;;;;;;;;5075699;28;20092;-66
2022/11/27 08:38:58;;;;;;;15.00;5.00;;;;;;;;;;5075173;28;20449;-72
2022/11/27 08:41:24;;;;;;;14.55;5.00;;;;;;;;;;5073308;28;20045;-66
2022/11/27 08:43:50;;;;;;;12.60;5.15;;;;;;;;;;5077565;28;20127;-66
2022/11/27 08:46:17;;;;;;;16.02;5.10;;;;;;;;;;5060703;28;20051;-66
2022/11/27 08:48:43;;;;;;;12.52;5.13;;;;;;;;;;5074778;28;20056;-66
2022/11/27 08:51:11;;;;;;;16.30;5.75;;;;;;;;;;5075782;28;20337;-66
2022/11/27 08:53:37;;;;;;;17.30;6.25;;;;;;;;;;5051331;28;20052;-65
2022/11/27 08:56:05;;;;;;;13.75;5.18;;;;;;;;;;5076637;28;20491;-66
2022/11/27 08:58:31;;;;;;;14.48;6.00;;;;;;;;;;5077638;28;20380;-65
2022/11/27 09:00:58;;;;;;;26.98;7.45;;;;;;;;;;5079342;28;20043;-65
2022/11/27 09:03:24;;;;;;;17.17;5.68;;;;;;;;;;5077112;28;20051;-66
2022/11/27 09:05:50;;;;;;;20.67;6.32;;;;;;;;;;5082563;28;20094;-65
2022/11/27 09:08:19;;;;;;;18.65;6.72;;;;;;;;;;5058243;28;20098;-65
2022/11/27 09:10:45;;;;;;;17.15;6.35;;;;;;;;;;5083949;28;20052;-65
2022/11/27 09:13:12;;;;;;;14.13;5.82;;;;;;;;;;5061175;28;20044;-65
2022/11/27 09:15:38;;;;;;;14.02;6.10;;;;;;;;;;5079169;28;20054;-66
2022/11/27 09:18:04;;;;;;;20.52;6.45;;;;;;;;;;5073530;28;20086;-66
2022/11/27 09:20:30;;;;;;;19.10;6.30;;;;;;;;;;5058268;28;20048;-66
2022/11/27 09:22:56;;;;;;;16.88;6.72;;;;;;;;;;5058683;28;20055;-65
2022/11/27 09:25:22;;;;;;;15.90;7.20;;;;;;;;;;5075144;28;20120;-77
2022/11/27 09:27:48;;;;;;;21.67;7.35;;;;;;;;;;5058609;28;20040;-81
2022/11/27 09:30:15;;;;;;;17.85;6.47;;;;;;;;;;5056108;28;20592;-82
2022/11/27 09:32:41;;;;;;;18.27;6.47;;;;;;;;;;5059655;28;20067;-66
2022/11/27 09:35:07;;;;;;;17.92;7.20;;;;;;;;;;5071528;28;20095;-65
2022/11/27 09:37:33;;;;;;;16.13;6.97;;;;;;;;;;5070701;28;20040;-67
2022/11/27 09:39:59;;;;;;;18.15;6.95;;;;;;;;;;5050307;28;20137;-65
2022/11/27 09:42:40;;;;;;;18.13;7.15;;;;;;;;;;5060142;28;20352;-75
2022/11/27 09:45:10;;;;;;;16.10;7.00;;;;;;;;;;5052126;28;20036;-66
2022/11/27 09:47:44;;;;;;;15.82;7.70;;;;;;;;;;5075083;28;20036;-66
2022/11/27 09:50:21;;;;;;;21.42;7.75;;;;;;;;;;5072278;28;20055;-66
2022/11/27 09:52:50;;;;;;;19.92;7.13;;;;;;;;;;5069335;28;20131;-67
2022/11/27 09:55:22;;;;;;;15.02;6.47;;;;;;;;;;5072220;28;20388;-67
2022/11/27 09:58:00;;;;;;;22.83;7.70;;;;;;;;;;5072553;28;20090;-68
2022/11/27 10:00:27;;;;;;;18.75;6.78;;;;;;;;;;5052987;28;20063;-69
2022/11/27 10:02:53;;;;;;;22.38;7.57;;;;;;;;;;5076876;28;20128;-69
2022/11/27 10:05:38;;;;;;;15.63;6.80;;;;;;;;;;5074807;28;20131;-69
2022/11/27 10:08:23;;;;;;;20.92;8.70;;;;;;;;;;5067120;28;20050;-69
2022/11/27 10:10:52;;;;;;;20.15;6.97;;;;;;;;;;5073501;28;20040;-68
2022/11/27 10:13:21;;;;;;;24.10;7.72;;;;;;;;;;5072550;28;20032;-68
2022/11/27 10:15:51;;;;;;;18.60;8.10;;;;;;;;;;5076236;28;20068;-67
2022/11/27 10:18:25;;;;;;;20.13;7.75;;;;;;;;;;5073711;28;20189;-69
2022/11/27 10:20:55;;;;;;;21.48;7.50;;;;;;;;;;5073107;28;20102;-68
2022/11/27 10:23:21;;;;;;;17.45;8.48;;;;;;;;;;5074092;28;20044;-67
2022/11/27 10:25:50;;;;;;;16.17;7.40;;;;;;;;;;5074725;28;20080;-68
2022/11/27 10:28:27;;;;;;;19.83;7.45;;;;;;;;;;5071876;28;20052;-68
2022/11/27 10:30:58;;;;;;;13.48;7.07;;;;;;;;;;5072494;28;20403;-69
2022/11/27 10:33:26;;;;;;;19.90;7.15;;;;;;;;;;5071982;28;20059;-68
2022/11/27 10:35:53;;;;;;;17.20;8.02;;;;;;;;;;5076570;28;20090;-67
2022/11/27 10:38:21;;;;;;;20.52;8.93;;;;;;;;;;5074331;28;20123;-67
2022/11/27 10:40:51;;;;;;;16.88;8.48;;;;;;;;;;5073491;28;20508;-66
2022/11/27 10:43:20;;;;;;;16.85;7.60;;;;;;;;;;5070902;28;20139;-64
2022/11/27 10:45:53;;;;;;;22.50;7.97;;;;;;;;;;5074055;28;20181;-65
2022/11/27 10:48:20;;;;;;;21.95;7.45;;;;;;;;;;5070642;28;20129;-65
2022/11/27 10:50:48;;;;;;;18.75;7.82;;;;;;;;;;5071718;28;20483;-65
2022/11/27 10:53:22;;;;;;;21.00;8.07;;;;;;;;;;5072223;28;20056;-65
2022/11/27 10:56:07;;;;;;;21.00;7.50;;;;;;;;;;5070940;28;20232;-66
2022/11/27 10:58:39;;;;;;;22.27;8.63;;;;;;;;;;5053009;28;20035;-68
2022/11/27 11:01:07;;;;;;;18.00;8.10;;;;;;;;;;5073120;28;20059;-64
2022/11/27 11:03:34;;;;;;;19.20;8.00;;;;;;;;;;5071975;28;20250;-64
2022/11/27 11:06:04;;;;;;;22.50;8.27;;;;;;;;;;5074529;28;20044;-67
2022/11/27 11:08:31;;;;;;;15.65;7.13;;;;;;;;;;5053489;28;20124;-67
2022/11/27 11:10:57;;;;;;;23.35;8.13;;;;;;;;;;5052892;28;20060;-66
2022/11/27 11:13:26;;;;;;;20.05;8.07;;;;;;;;;;5074770;28;20040;-66
2022/11/27 11:15:52;;;;;;;16.88;8.05;;;;;;;;;;5051328;28;20227;-70
2022/11/27 11:18:20;;;;;;;20.75;8.30;;;;;;;;;;5071656;28;20052;-66
2022/11/27 11:20:47;;;;;;;17.85;7.28;;;;;;;;;;5071078;28;20044;-66
2022/11/27 11:23:21;;;;;;;17.80;7.95;;;;;;;;;;5072409;28;20415;-66
2022/11/27 11:25:50;;;;;;;22.75;8.13;;;;;;;;;;5072535;28;20055;-66
2022/11/27 11:28:18;;;;;;;19.77;8.30;;;;;;;;;;5061583;28;20063;-66
2022/11/27 11:30:51;;;;;;;22.88;8.50;;;;;;;;;;5057142;28;20147;-66
2022/11/27 11:33:17;;;;;;;18.55;8.68;;;;;;;;;;5052028;28;20052;-66
2022/11/27 11:35:50;;;;;;;17.75;8.27;;;;;;;;;;5059151;28;20127;-67
2022/11/27 11:38:18;;;;;;;21.10;8.70;;;;;;;;;;5069923;28;20072;-67
2022/11/27 11:40:56;;;;;;;20.90;8.75;;;;;;;;;;5073152;28;20456;-66
2022/11/27 11:43:24;;;;;;;22.17;8.82;;;;;;;;;;5069785;28;20037;-66
2022/11/27 11:45:50;;;;;;;21.60;8.48;;;;;;;;;;5067967;28;20094;-66
2022/11/27 11:48:23;;;;;;;18.88;8.32;;;;;;;;;;5075112;28;20045;-66
2022/11/27 11:50:49;;;;;;;16.05;7.65;;;;;;;;;;5051015;28;20098;-66
2022/11/27 11:53:17;;;;;;;22.67;9.02;;;;;;;;;;5052287;28;20079;-66
2022/11/27 11:55:48;;;;;;;20.55;9.07;;;;;;;;;;5071430;28;20072;-67
2022/11/27 11:58:14;;;;;;;22.58;9.85;;;;;;;;;;5056261;28;20086;-66
2022/11/27 12:00:42;;;;;;;21.05;9.88;;;;;;;;;;5076301;28;20054;-67
2022/11/27 12:03:11;;;;;;;19.95;8.73;;;;;;;;;;5051827;28;20037;-66
2022/11/27 12:05:55;;;;;;;19.05;8.63;;;;;;;;;;5046470;28;20425;-66
2022/11/27 12:08:28;;;;;;;21.02;8.95;;;;;;;;;;5054702;28;20048;-66
2022/11/27 12:10:54;;;;;;;23.35;9.55;;;;;;;;;;5054316;28;20054;-66
2022/11/27 12:13:26;;;;;;;19.17;9.38;;;;;;;;;;5075265;28;20487;-66
2022/11/27 12:15:57;;;;;;;17.58;8.85;;;;;;;;;;5060191;28;20123;-66
2022/11/27 12:18:25;;;;;;;18.20;8.93;;;;;;;;;;5056592;28;20047;-66
2022/11/27 12:21:04;;;;;;;19.90;9.52;;;;;;;;;;5071350;28;20045;-66
2022/11/27 12:23:35;;;;;;;19.23;9.05;;;;;;;;;;5054191;28;20086;-67
2022/11/27 12:26:05;;;;;;;17.95;9.20;;;;;;;;;;5081183;28;20050;-67
2022/11/27 12:28:32;;;;;;;22.15;9.65;;;;;;;;;;5076696;28;20048;-66
2022/11/27 12:31:06;;;;;;;21.20;9.75;;;;;;;;;;5054441;28;20480;-67
2022/11/27 12:33:46;;;;;;;22.27;9.50;;;;;;;;;;5056380;28;20051;-67
2022/11/27 12:36:28;;;;;;;23.58;9.25;;;;;;;;;;5056763;28;20403;-67
2022/11/27 12:39:02;;;;;;;22.02;9.98;;;;;;;;;;5048941;28;20499;-67
2022/11/27 12:41:44;;;;;;;27.15;10.73;;;;;;;;;;5070245;28;20048;-67
2022/11/27 12:44:16;;;;;;;20.00;9.43;;;;;;;;;;5068528;28;20403;-67
2022/11/27 12:46:46;;;;;;;18.85;8.90;;;;;;;;;;5078999;28;20104;-66
2022/11/27 12:49:20;;;;;;;20.55;8.65;;;;;;;;;;5079039;28;20077;-67
2022/11/27 12:51:48;;;;;;;19.95;10.63;;;;;;;;;;5064961;28;20048;-67
2022/11/27 12:54:18;;;;;;;19.58;9.32;;;;;;;;;;5080673;28;20182;-67
2022/11/27 12:56:47;;;;;;;16.05;8.88;;;;;;;;;;5076653;28;20131;-66
2022/11/27 12:59:24;;;;;;;17.70;8.43;;;;;;;;;;5078273;28;20118;-66
2022/11/27 13:01:55;;;;;;;19.70;8.75;;;;;;;;;;5079015;28;20051;-68
2022/11/27 13:04:35;;;;;;;19.77;8.73;;;;;;;;;;5070218;28;20483;-70
2022/11/27 13:07:05;;;;;;;25.00;9.23;;;;;;;;;;5078208;28;20056;-66
2022/11/27 13:09:44;;;;;;;14.80;8.48;;;;;;;;;;5075977;28;20048;-67
2022/11/27 13:12:13;;;;;;;21.60;9.57;;;;;;;;;;5064717;28;20040;-67
2022/11/27 13:14:41;;;;;;;21.80;9.45;;;;;;;;;;5060934;28;20119;-67
2022/11/27 13:17:14;;;;;;;19.42;9.48;;;;;;;;;;5061261;28;20096;-67
2022/11/27 13:19:43;;;;;;;17.33;8.40;;;;;;;;;;5079436;28;20404;-66
2022/11/27 13:22:12;;;;;;;20.10;9.00;;;;;;;;;;5080790;28;20751;-67
2022/11/27 13:24:38;;;;;;;18.27;8.45;;;;;;;;;;5054988;28;20382;-67
2022/11/27 13:27:10;;;;;;;15.30;9.05;;;;;;;;;;5074333;28;20432;-70
2022/11/27 13:29:45;;;;;;;19.20;9.02;;;;;;;;;;5062219;28;20430;-68
2022/11/27 13:32:32;;;;;;;18.92;10.32;;;;;;;;;;5077053;28;20041;-67
2022/11/27 13:35:01;;;;;;;19.75;9.50;;;;;;;;;;5074661;28;20053;-67
2022/11/27 13:37:29;;;;;;;15.88;9.30;;;;;;;;;;5075454;28;20063;-67
2022/11/27 13:40:04;;;;;;;20.88;10.05;;;;;;;;;;5077240;28;20122;-67
2022/11/27 13:42:32;;;;;;;20.63;9.43;;;;;;;;;;5078065;28;20566;-67
2022/11/27 13:45:04;;;;;;;21.50;10.02;;;;;;;;;;5074634;28;20132;-67
2022/11/27 13:47:35;;;;;;;22.75;9.93;;;;;;;;;;5079958;28;20165;-67
2022/11/27 13:50:03;;;;;;;19.80;9.20;;;;;;;;;;5073795;28;20036;-67
2022/11/27 13:52:30;;;;;;;23.77;10.05;;;;;;;;;;5076836;28;20144;-66
2022/11/27 13:54:57;;;;;;;24.00;10.00;;;;;;;;;;5086410;28;20055;-67
2022/11/27 13:57:23;;;;;;;21.30;9.75;;;;;;;;;;5080425;28;20166;-66
2022/11/27 13:59:55;;;;;;;23.27;10.13;;;;;;;;;;5088079;28;20044;-66
2022/11/27 14:02:21;;;;;;;18.08;10.13;;;;;;;;;;5076906;28;20056;-67
2022/11/27 14:04:50;;;;;;;22.50;10.43;;;;;;;;;;5079955;28;20558;-67
2022/11/27 14:07:17;;;;;;;25.05;11.20;;;;;;;;;;5075070;28;20046;-67
2022/11/27 14:09:45;;;;;;;23.90;11.15;;;;;;;;;;5071023;28;20450;-67
2022/11/27 14:12:21;;;;;;;19.95;10.07;;;;;;;;;;5074438;28;20135;-67
2022/11/27 14:15:00;;;;;;;19.95;10.65;;;;;;;;;;5051286;28;20083;-68
2022/11/27 14:17:32;;;;;;;25.20;10.90;;;;;;;;;;5069548;28;20130;-68
2022/11/27 14:20:03;;;;;;;25.17;10.95;;;;;;;;;;5069578;28;20062;-67
2022/11/27 14:22:32;;;;;;;22.80;10.98;;;;;;;;;;5071227;28;20050;-66
2022/11/27 14:24:58;;;;;;;24.17;11.07;;;;;;;;;;5069209;28;20429;-67
2022/11/27 14:27:25;;;;;;;27.95;10.95;;;;;;;;;;5066955;28;20549;-67
2022/11/27 14:29:52;;;;;;;27.30;11.77;;;;;;;;;;5073221;28;20044;-67
2022/11/27 14:32:19;;;;;;;25.55;10.68;;;;;;;;;;5077148;28;20109;-67
2022/11/27 14:34:47;;;;;;;23.52;10.80;;;;;;;;;;5080552;28;20044;-67